createdAt,value
2017-09-25T00:00:25.918Z,63.63
2017-09-25T00:01:06.370Z,63.4
2017-09-25T00:01:46.828Z,63.7
2017-09-25T00:02:27.288Z,63.5
2017-09-25T00:03:07.744Z,63.53
2017-09-25T00:03:48.195Z,63.31
2017-09-25T00:04:28.652Z,63.43
2017-09-25T00:05:09.103Z,63.6
2017-09-25T00:05:49.553Z,63.4
2017-09-25T00:06:30.015Z,63.43
2017-09-25T00:07:10.469Z,63.53
2017-09-25T00:07:50.930Z,63.4
2017-09-25T00:08:31.387Z,63.43
2017-09-25T00:09:11.840Z,63.4
2017-09-25T00:09:52.293Z,63.4
2017-09-25T00:10:32.754Z,63.53
2017-09-25T00:11:13.207Z,63.43
2017-09-25T00:11:53.664Z,63.4
2017-09-25T00:12:34.115Z,63.21
2017-09-25T00:13:14.568Z,63.43
2017-09-25T00:13:55.023Z,63.63
2017-09-25T00:14:35.479Z,63.5
2017-09-25T00:15:15.933Z,63.5
2017-09-25T00:15:56.392Z,63.21
2017-09-25T00:16:36.838Z,63.73
2017-09-25T00:17:17.292Z,63.7
2017-09-25T00:17:57.750Z,63.73
2017-09-25T00:18:38.201Z,63.34
2017-09-25T00:19:18.658Z,63.82
2017-09-25T00:19:59.117Z,63.73
2017-09-25T00:20:39.572Z,63.79
2017-09-25T00:21:20.021Z,63.79
2017-09-25T00:22:00.474Z,63.82
2017-09-25T00:22:40.927Z,63.79
2017-09-25T00:23:21.380Z,63.4
2017-09-25T00:24:01.837Z,63.79
2017-09-25T00:24:42.292Z,64.08
2017-09-25T00:25:22.753Z,63.5
2017-09-25T00:26:03.209Z,63.98
2017-09-25T00:26:43.667Z,63.6
2017-09-25T00:27:24.133Z,63.89
2017-09-25T00:28:04.586Z,63.98
2017-09-25T00:28:45.044Z,63.89
2017-09-25T00:29:25.498Z,63.98
2017-09-25T00:30:05.954Z,64.01
2017-09-25T00:30:46.406Z,63.98
2017-09-25T00:31:26.860Z,63.98
2017-09-25T00:32:07.310Z,63.98
2017-09-25T00:32:47.773Z,64.01
2017-09-25T00:33:28.223Z,64.01
2017-09-25T00:34:08.675Z,63.89
2017-09-25T00:34:49.127Z,63.98
2017-09-25T00:35:29.583Z,63.98
2017-09-25T00:36:10.048Z,63.98
2017-09-25T00:36:50.501Z,64.18
2017-09-25T00:37:30.957Z,63.98
2017-09-25T00:38:11.416Z,64.18
2017-09-25T00:38:51.871Z,64.18
2017-09-25T00:39:32.327Z,64.01
2017-09-25T00:40:12.783Z,63.98
2017-09-25T00:40:53.232Z,63.98
2017-09-25T00:41:33.690Z,64.18
2017-09-25T00:42:14.144Z,64.01
2017-09-25T00:42:54.603Z,63.98
2017-09-25T00:43:35.054Z,64.18
2017-09-25T00:44:15.507Z,64.18
2017-09-25T00:44:55.957Z,63.98
2017-09-25T00:45:36.436Z,64.18
2017-09-25T00:46:16.874Z,63.89
2017-09-25T00:46:57.331Z,63.98
2017-09-25T00:47:37.784Z,63.98
2017-09-25T00:48:18.248Z,63.98
2017-09-25T00:48:58.698Z,63.98
2017-09-25T00:49:39.149Z,63.98
2017-09-25T00:50:19.601Z,64.08
2017-09-25T00:51:00.055Z,64.18
2017-09-25T00:51:40.512Z,63.89
2017-09-25T00:52:20.964Z,63.79
2017-09-25T00:53:01.421Z,64.37
2017-09-25T00:53:41.877Z,64.28
2017-09-25T00:54:22.326Z,63.79
2017-09-25T00:55:02.784Z,63.89
2017-09-25T00:55:43.241Z,64.28
2017-09-25T00:56:23.709Z,63.89
2017-09-25T00:57:04.167Z,64.37
2017-09-25T00:57:44.622Z,64.18
2017-09-25T00:58:25.075Z,64.21
2017-09-25T00:59:05.529Z,63.98
2017-09-25T00:59:45.989Z,63.98
2017-09-25T01:00:26.440Z,63.98
2017-09-25T01:01:06.899Z,63.98
2017-09-25T01:01:47.355Z,64.08
2017-09-25T01:02:27.808Z,64.18
2017-09-25T01:03:08.263Z,64.28
2017-09-25T01:03:48.723Z,63.89
2017-09-25T01:04:29.188Z,63.98
2017-09-25T01:05:09.646Z,64.01
2017-09-25T01:05:50.097Z,64.08
2017-09-25T01:06:30.554Z,64.47
2017-09-25T01:07:11.008Z,64.47
2017-09-25T01:07:51.461Z,64.08
2017-09-25T01:08:31.913Z,64.56
2017-09-25T01:09:12.368Z,64.56
2017-09-25T01:09:52.825Z,64.56
2017-09-25T01:10:33.276Z,64.37
2017-09-25T01:11:13.729Z,64.66
2017-09-25T01:11:54.189Z,64.37
2017-09-25T01:12:34.647Z,64.37
2017-09-25T01:13:15.099Z,64.18
2017-09-25T01:13:55.556Z,64.37
2017-09-25T01:14:36.010Z,64.37
2017-09-25T01:15:16.468Z,64.37
2017-09-25T01:15:56.917Z,64.37
2017-09-25T01:16:37.372Z,64.28
2017-09-25T01:17:17.826Z,64.37
2017-09-25T01:17:58.279Z,64.18
2017-09-25T01:18:38.736Z,64.18
2017-09-25T01:19:19.196Z,64.37
2017-09-25T01:19:59.646Z,64.28
2017-09-25T01:20:40.104Z,64.18
2017-09-25T01:21:20.558Z,64.08
2017-09-25T01:22:01.016Z,64.28
2017-09-25T01:22:41.466Z,64.18
2017-09-25T01:23:21.928Z,64.18
2017-09-25T01:24:02.381Z,64.18
2017-09-25T01:24:42.833Z,64.28
2017-09-25T01:25:23.295Z,64.18
2017-09-25T01:26:03.747Z,64.28
2017-09-25T01:26:44.206Z,64.18
2017-09-25T01:27:24.666Z,64.28
2017-09-25T01:28:05.115Z,64.18
2017-09-25T01:28:45.574Z,64.18
2017-09-25T01:29:26.027Z,64.18
2017-09-25T01:30:06.512Z,64.18
2017-09-25T01:30:46.941Z,64.18
2017-09-25T01:31:27.395Z,64.18
2017-09-25T01:32:07.854Z,64.18
2017-09-25T01:32:48.307Z,64.18
2017-09-25T01:33:28.763Z,64.37
2017-09-25T01:34:09.216Z,64.18
2017-09-25T01:34:49.678Z,64.18
2017-09-25T01:35:30.138Z,64.18
2017-09-25T01:36:10.593Z,64.18
2017-09-25T01:36:51.052Z,64.18
2017-09-25T01:37:31.505Z,64.18
2017-09-25T01:38:11.954Z,64.18
2017-09-25T01:38:52.397Z,64.28
2017-09-25T01:39:32.851Z,64.18
2017-09-25T01:40:13.307Z,64.18
2017-09-25T01:40:53.761Z,64.18
2017-09-25T01:41:34.212Z,63.98
2017-09-25T01:42:14.670Z,63.98
2017-09-25T01:42:55.126Z,64.18
2017-09-25T01:43:35.584Z,64.28
2017-09-25T01:44:16.039Z,63.98
2017-09-25T01:44:56.496Z,64.86
2017-09-25T01:45:36.948Z,64.08
2017-09-25T01:46:17.403Z,64.28
2017-09-25T01:46:57.853Z,64.08
2017-09-25T01:47:38.312Z,64.18
2017-09-25T01:48:18.768Z,64.76
2017-09-25T01:48:59.226Z,64.08
2017-09-25T01:49:39.691Z,64.08
2017-09-25T01:50:20.146Z,64.08
2017-09-25T01:51:00.607Z,64.76
2017-09-25T01:51:41.064Z,64.18
2017-09-25T01:52:21.503Z,64.66
2017-09-25T01:53:01.956Z,64.76
2017-09-25T01:53:42.414Z,64.08
2017-09-25T01:54:22.868Z,64.76
2017-09-25T01:55:03.324Z,64.76
2017-09-25T01:55:43.784Z,64.37
2017-09-25T01:56:24.242Z,64.37
2017-09-25T01:57:04.705Z,64.37
2017-09-25T01:57:45.153Z,64.37
2017-09-25T01:58:25.624Z,64.76
2017-09-25T01:59:06.078Z,64.37
2017-09-25T01:59:46.531Z,64.56
2017-09-25T02:00:26.980Z,64.37
2017-09-25T02:01:07.431Z,64.37
2017-09-25T02:01:47.884Z,64.37
2017-09-25T02:02:28.347Z,64.37
2017-09-25T02:03:08.795Z,64.76
2017-09-25T02:03:49.251Z,64.37
2017-09-25T02:04:29.703Z,64.28
2017-09-25T02:05:10.157Z,64.66
2017-09-25T02:05:50.613Z,64.37
2017-09-25T02:06:31.068Z,64.37
2017-09-25T02:07:11.519Z,64.28
2017-09-25T02:07:51.972Z,64.56
2017-09-25T02:08:32.430Z,64.37
2017-09-25T02:09:12.889Z,64.37
2017-09-25T02:09:53.350Z,64.37
2017-09-25T02:10:33.794Z,64.56
2017-09-25T02:11:14.252Z,64.47
2017-09-25T02:11:54.703Z,64.37
2017-09-25T02:12:35.156Z,64.47
2017-09-25T02:13:15.613Z,64.37
2017-09-25T02:13:56.071Z,64.47
2017-09-25T02:14:36.528Z,64.18
2017-09-25T02:15:16.981Z,64.37
2017-09-25T02:15:57.432Z,64.47
2017-09-25T02:16:37.888Z,64.37
2017-09-25T02:17:18.335Z,64.47
2017-09-25T02:17:58.786Z,64.56
2017-09-25T02:18:39.251Z,64.76
2017-09-25T02:19:19.709Z,64.66
2017-09-25T02:20:00.171Z,64.56
2017-09-25T02:20:40.625Z,64.66
2017-09-25T02:21:21.118Z,64.56
2017-09-25T02:22:01.545Z,64.86
2017-09-25T02:22:41.995Z,64.28
2017-09-25T02:23:22.452Z,64.28
2017-09-25T02:24:02.899Z,64.66
2017-09-25T02:24:43.351Z,64.86
2017-09-25T02:25:23.797Z,64.76
2017-09-25T02:26:04.253Z,64.28
2017-09-25T02:26:44.700Z,64.86
2017-09-25T02:27:25.149Z,64.37
2017-09-25T02:28:05.601Z,64.66
2017-09-25T02:28:46.053Z,64.18
2017-09-25T02:29:26.509Z,64.56
2017-09-25T02:30:06.962Z,64.56
2017-09-25T02:30:47.430Z,64.28
2017-09-25T02:31:27.886Z,64.56
2017-09-25T02:32:08.339Z,64.56
2017-09-25T02:32:48.795Z,64.56
2017-09-25T02:33:29.249Z,64.37
2017-09-25T02:34:09.705Z,64.37
2017-09-25T02:34:50.158Z,64.66
2017-09-25T02:35:30.617Z,64.37
2017-09-25T02:36:11.075Z,64.66
2017-09-25T02:36:51.525Z,64.56
2017-09-25T02:37:31.981Z,64.37
2017-09-25T02:38:12.438Z,64.37
2017-09-25T02:38:52.889Z,64.37
2017-09-25T02:39:33.356Z,64.76
2017-09-25T02:40:13.816Z,64.37
2017-09-25T02:40:54.273Z,64.37
2017-09-25T02:41:34.726Z,64.76
2017-09-25T02:42:15.192Z,64.37
2017-09-25T02:42:55.644Z,64.56
2017-09-25T02:43:36.109Z,64.37
2017-09-25T02:44:16.581Z,64.56
2017-09-25T02:44:57.016Z,64.37
2017-09-25T02:45:37.465Z,64.56
2017-09-25T02:46:17.922Z,64.56
2017-09-25T02:46:58.383Z,64.56
2017-09-25T02:47:38.847Z,64.56
2017-09-25T02:48:19.302Z,64.56
2017-09-25T02:48:59.761Z,64.37
2017-09-25T02:49:40.223Z,64.28
2017-09-25T02:50:20.677Z,64.28
2017-09-25T02:51:01.136Z,64.28
2017-09-25T02:51:41.591Z,64.86
2017-09-25T02:52:22.037Z,64.47
2017-09-25T02:53:02.488Z,64.66
2017-09-25T02:53:42.949Z,64.28
2017-09-25T02:54:23.426Z,64.28
2017-09-25T02:55:03.885Z,64.18
2017-09-25T02:55:44.338Z,64.56
2017-09-25T02:56:24.836Z,64.56
2017-09-25T02:57:05.246Z,64.47
2017-09-25T02:57:45.698Z,64.56
2017-09-25T02:58:26.157Z,64.76
2017-09-25T02:59:06.615Z,64.47
2017-09-25T02:59:47.074Z,64.47
2017-09-25T03:00:27.528Z,64.37
2017-09-25T03:01:07.980Z,64.47
2017-09-25T03:01:48.441Z,64.47
2017-09-25T03:02:28.896Z,64.56
2017-09-25T03:03:09.356Z,64.47
2017-09-25T03:03:49.811Z,64.34
2017-09-25T03:04:30.274Z,64.66
2017-09-25T03:05:10.729Z,64.47
2017-09-25T03:05:51.187Z,64.66
2017-09-25T03:06:31.646Z,64.66
2017-09-25T03:07:12.105Z,64.56
2017-09-25T03:07:52.559Z,64.56
2017-09-25T03:08:33.019Z,64.18
2017-09-25T03:09:13.476Z,64.56
2017-09-25T03:09:53.930Z,64.18
2017-09-25T03:10:34.387Z,64.28
2017-09-25T03:11:14.842Z,64.56
2017-09-25T03:11:55.296Z,64.28
2017-09-25T03:12:35.752Z,64.66
2017-09-25T03:13:16.210Z,64.56
2017-09-25T03:13:56.667Z,64.37
2017-09-25T03:14:37.103Z,64.37
2017-09-25T03:15:17.567Z,64.56
2017-09-25T03:15:58.025Z,64.37
2017-09-25T03:16:38.482Z,64.56
2017-09-25T03:17:18.938Z,64.76
2017-09-25T03:17:59.388Z,63.98
2017-09-25T03:18:39.845Z,64.08
2017-09-25T03:19:20.300Z,64.37
2017-09-25T03:20:00.756Z,64.37
2017-09-25T03:20:41.214Z,64.28
2017-09-25T03:21:21.672Z,64.18
2017-09-25T03:22:02.127Z,64.18
2017-09-25T03:22:42.584Z,64.37
2017-09-25T03:23:23.041Z,64.08
2017-09-25T03:24:03.489Z,64.37
2017-09-25T03:24:43.938Z,64.18
2017-09-25T03:25:24.392Z,64.37
2017-09-25T03:26:04.847Z,64.37
2017-09-25T03:26:45.304Z,64.18
2017-09-25T03:27:25.764Z,64.18
2017-09-25T03:28:06.222Z,64.28
2017-09-25T03:28:46.666Z,64.28
2017-09-25T03:29:27.127Z,64.18
2017-09-25T03:30:07.575Z,64.28
2017-09-25T03:30:48.044Z,64.28
2017-09-25T03:31:28.499Z,64.28
2017-09-25T03:32:08.966Z,64.28
2017-09-25T03:32:49.437Z,64.18
2017-09-25T03:33:29.893Z,64.28
2017-09-25T03:34:10.351Z,64.28
2017-09-25T03:34:50.805Z,64.28
2017-09-25T03:35:31.256Z,64.28
2017-09-25T03:36:11.704Z,64.28
2017-09-25T03:36:52.160Z,64.18
2017-09-25T03:37:32.616Z,64.37
2017-09-25T03:38:13.074Z,64.18
2017-09-25T03:38:53.529Z,64.18
2017-09-25T03:39:33.989Z,64.28
2017-09-25T03:40:14.444Z,64.28
2017-09-25T03:40:54.955Z,64.28
2017-09-25T03:41:35.396Z,64.18
2017-09-25T03:42:15.856Z,64.76
2017-09-25T03:42:56.321Z,64.37
2017-09-25T03:43:36.778Z,64.47
2017-09-25T03:44:17.235Z,64.28
2017-09-25T03:44:57.685Z,64.66
2017-09-25T03:45:38.144Z,64.66
2017-09-25T03:46:18.606Z,64.56
2017-09-25T03:46:59.064Z,64.56
2017-09-25T03:47:39.521Z,64.66
2017-09-25T03:48:19.976Z,64.56
2017-09-25T03:49:00.437Z,64.66
2017-09-25T03:49:40.887Z,64.66
2017-09-25T03:50:21.347Z,64.56
2017-09-25T03:51:01.801Z,64.56
2017-09-25T03:51:42.255Z,64.86
2017-09-25T03:52:22.706Z,64.37
2017-09-25T03:53:03.166Z,64.66
2017-09-25T03:53:43.620Z,64.47
2017-09-25T03:54:24.078Z,65.05
2017-09-25T03:55:04.525Z,64.86
2017-09-25T03:55:44.993Z,64.47
2017-09-25T03:56:25.450Z,64.47
2017-09-25T03:57:05.887Z,64.66
2017-09-25T03:57:46.339Z,64.47
2017-09-25T03:58:26.814Z,64.56
2017-09-25T03:59:07.260Z,64.56
2017-09-25T03:59:47.718Z,64.47
2017-09-25T04:00:28.156Z,64.76
2017-09-25T04:01:08.615Z,64.56
2017-09-25T04:01:49.069Z,64.66
2017-09-25T04:02:29.531Z,64.76
2017-09-25T04:03:09.979Z,64.95
2017-09-25T04:03:50.427Z,64.56
2017-09-25T04:04:30.884Z,64.37
2017-09-25T04:05:11.320Z,64.37
2017-09-25T04:05:51.772Z,64.18
2017-09-25T04:06:32.225Z,63.98
2017-09-25T04:07:12.689Z,64.31
2017-09-25T04:07:53.146Z,64.18
2017-09-25T04:08:33.593Z,64.37
2017-09-25T04:09:14.044Z,64.37
2017-09-25T04:09:54.487Z,63.98
2017-09-25T04:10:34.934Z,63.92
2017-09-25T04:11:15.390Z,63.98
2017-09-25T04:11:55.839Z,64.37
2017-09-25T04:12:36.286Z,63.98
2017-09-25T04:13:16.740Z,63.98
2017-09-25T04:13:57.193Z,64.18
2017-09-25T04:14:37.642Z,63.89
2017-09-25T04:15:18.096Z,64.01
2017-09-25T04:15:58.542Z,63.63
2017-09-25T04:16:39.000Z,64.01
2017-09-25T04:17:19.457Z,63.82
2017-09-25T04:17:59.915Z,63.63
2017-09-25T04:18:40.372Z,63.43
2017-09-25T04:19:20.830Z,63.53
2017-09-25T04:20:01.287Z,63.63
2017-09-25T04:20:41.732Z,63.82
2017-09-25T04:21:22.188Z,63.53
2017-09-25T04:22:02.628Z,63.92
2017-09-25T04:22:43.118Z,63.82
2017-09-25T04:23:23.571Z,63.43
2017-09-25T04:24:04.027Z,64.01
2017-09-25T04:24:44.475Z,64.01
2017-09-25T04:25:24.943Z,63.43
2017-09-25T04:26:05.386Z,63.82
2017-09-25T04:26:45.845Z,63.82
2017-09-25T04:27:26.304Z,63.73
2017-09-25T04:28:06.777Z,64.01
2017-09-25T04:28:47.243Z,63.82
2017-09-25T04:29:27.699Z,63.73
2017-09-25T04:30:08.153Z,63.43
2017-09-25T04:30:48.609Z,63.43
2017-09-25T04:31:29.057Z,63.43
2017-09-25T04:32:09.587Z,63.63
2017-09-25T04:32:50.046Z,63.34
2017-09-25T04:33:30.504Z,63.63
2017-09-25T04:34:10.962Z,63.63
2017-09-25T04:34:51.419Z,63.53
2017-09-25T04:35:31.875Z,63.34
2017-09-25T04:36:12.331Z,63.24
2017-09-25T04:36:52.793Z,63.24
2017-09-25T04:37:33.246Z,63.05
2017-09-25T04:38:13.705Z,63.24
2017-09-25T04:38:54.154Z,63.34
2017-09-25T04:39:34.613Z,63.24
2017-09-25T04:40:15.071Z,63.15
2017-09-25T04:40:55.520Z,63.15
2017-09-25T04:41:35.976Z,63.53
2017-09-25T04:42:16.424Z,63.24
2017-09-25T04:42:56.915Z,63.24
2017-09-25T04:43:37.336Z,63.05
2017-09-25T04:44:17.789Z,63.24
2017-09-25T04:44:58.254Z,63.05
2017-09-25T04:45:38.711Z,63.24
2017-09-25T04:46:19.165Z,63.34
2017-09-25T04:46:59.616Z,63.24
2017-09-25T04:47:40.077Z,63.24
2017-09-25T04:48:20.525Z,63.15
2017-09-25T04:49:00.976Z,63.24
2017-09-25T04:49:41.431Z,62.95
2017-09-25T04:50:21.884Z,63.15
2017-09-25T04:51:02.335Z,63.15
2017-09-25T04:51:42.800Z,63.24
2017-09-25T04:52:23.294Z,63.15
2017-09-25T04:53:03.737Z,63.24
2017-09-25T04:53:44.196Z,63.05
2017-09-25T04:54:24.643Z,62.95
2017-09-25T04:55:05.091Z,63.15
2017-09-25T04:55:45.545Z,63.05
2017-09-25T04:56:26.012Z,63.24
2017-09-25T04:57:06.466Z,62.95
2017-09-25T04:57:46.922Z,63.05
2017-09-25T04:58:27.384Z,63.15
2017-09-25T04:59:07.839Z,63.34
2017-09-25T04:59:48.299Z,63.24
2017-09-25T05:00:28.759Z,63.53
2017-09-25T05:01:09.206Z,63.24
2017-09-25T05:01:49.720Z,63.53
2017-09-25T05:02:30.172Z,63.34
2017-09-25T05:03:10.625Z,63.15
2017-09-25T05:03:51.073Z,63.02
2017-09-25T05:04:31.517Z,63.12
2017-09-25T05:05:11.977Z,63.15
2017-09-25T05:05:52.422Z,63.02
2017-09-25T05:06:32.884Z,63.12
2017-09-25T05:07:13.347Z,63.5
2017-09-25T05:07:53.805Z,63.12
2017-09-25T05:08:34.260Z,63.5
2017-09-25T05:09:14.716Z,63.31
2017-09-25T05:09:55.168Z,63.12
2017-09-25T05:10:35.636Z,63.5
2017-09-25T05:11:16.073Z,63.5
2017-09-25T05:11:56.527Z,63.5
2017-09-25T05:12:36.980Z,63.5
2017-09-25T05:13:17.431Z,63.53
2017-09-25T05:13:57.892Z,63.5
2017-09-25T05:14:38.343Z,63.15
2017-09-25T05:15:18.801Z,63.31
2017-09-25T05:15:59.251Z,63.5
2017-09-25T05:16:39.702Z,63.21
2017-09-25T05:17:20.161Z,63.5
2017-09-25T05:18:00.611Z,63.5
2017-09-25T05:18:41.071Z,63.12
2017-09-25T05:19:21.522Z,63.31
2017-09-25T05:20:01.995Z,63.5
2017-09-25T05:20:42.455Z,63.31
2017-09-25T05:21:22.914Z,63.4
2017-09-25T05:22:03.351Z,63.53
2017-09-25T05:22:43.810Z,63.31
2017-09-25T05:23:24.266Z,63.5
2017-09-25T05:24:04.729Z,63.5
2017-09-25T05:24:45.174Z,63.5
2017-09-25T05:25:25.624Z,63.12
2017-09-25T05:26:06.084Z,63.5
2017-09-25T05:26:46.537Z,63.5
2017-09-25T05:27:26.992Z,63.31
2017-09-25T05:28:07.452Z,63.12
2017-09-25T05:28:47.900Z,63.31
2017-09-25T05:29:28.345Z,63.21
2017-09-25T05:30:08.805Z,63.31
2017-09-25T05:30:49.260Z,63.21
2017-09-25T05:31:29.714Z,63.21
2017-09-25T05:32:10.234Z,63.02
2017-09-25T05:32:50.696Z,63.21
2017-09-25T05:33:31.148Z,63.12
2017-09-25T05:34:11.595Z,63.12
2017-09-25T05:34:52.049Z,63.21
2017-09-25T05:35:32.509Z,63.21
2017-09-25T05:36:12.961Z,63.12
2017-09-25T05:36:53.438Z,63.02
2017-09-25T05:37:33.869Z,63.12
2017-09-25T05:38:14.323Z,63.21
2017-09-25T05:38:54.778Z,63.02
2017-09-25T05:39:35.239Z,62.92
2017-09-25T05:40:15.694Z,62.92
2017-09-25T05:40:56.153Z,62.82
2017-09-25T05:41:36.609Z,62.73
2017-09-25T05:42:17.136Z,63.02
2017-09-25T05:42:57.592Z,62.82
2017-09-25T05:43:38.055Z,63.02
2017-09-25T05:44:18.513Z,63.02
2017-09-25T05:44:58.973Z,62.92
2017-09-25T05:45:39.434Z,62.92
2017-09-25T05:46:19.881Z,63.02
2017-09-25T05:47:00.336Z,63.02
2017-09-25T05:47:40.801Z,62.92
2017-09-25T05:48:21.256Z,63.02
2017-09-25T05:49:01.724Z,63.02
2017-09-25T05:49:42.166Z,62.82
2017-09-25T05:50:22.626Z,63.02
2017-09-25T05:51:03.080Z,63.12
2017-09-25T05:51:43.536Z,62.82
2017-09-25T05:53:36.199Z,62.73
2017-09-25T05:54:16.653Z,63.02
2017-09-25T05:54:57.111Z,63.02
2017-09-25T05:55:37.565Z,63.02
2017-09-25T05:56:18.017Z,62.82
2017-09-25T05:56:58.467Z,62.82
2017-09-25T05:57:38.921Z,62.73
2017-09-25T05:58:19.372Z,62.82
2017-09-25T05:58:59.833Z,63.02
2017-09-25T05:59:40.288Z,63.12
2017-09-25T06:00:20.740Z,62.73
2017-09-25T06:01:01.196Z,62.73
2017-09-25T06:01:41.650Z,62.92
2017-09-25T06:02:22.102Z,62.73
2017-09-25T06:03:02.558Z,62.73
2017-09-25T06:03:43.012Z,63.12
2017-09-25T06:04:23.464Z,63.02
2017-09-25T06:05:03.920Z,62.82
2017-09-25T06:05:44.373Z,63.02
2017-09-25T06:06:24.826Z,62.82
2017-09-25T06:07:05.281Z,62.92
2017-09-25T06:07:45.727Z,63.31
2017-09-25T06:08:26.175Z,63.21
2017-09-25T06:09:06.627Z,63.02
2017-09-25T06:09:47.079Z,63.12
2017-09-25T06:10:27.533Z,62.95
2017-09-25T06:11:07.988Z,63.24
2017-09-25T06:11:48.445Z,63.02
2017-09-25T06:12:28.897Z,63.21
2017-09-25T06:13:09.353Z,63.05
2017-09-25T06:13:49.811Z,63.21
2017-09-25T06:14:30.266Z,62.86
2017-09-25T06:15:10.710Z,62.73
2017-09-25T06:15:51.164Z,62.63
2017-09-25T06:16:31.615Z,62.92
2017-09-25T06:17:12.076Z,62.86
2017-09-25T06:17:52.531Z,62.76
2017-09-25T06:18:32.986Z,62.73
2017-09-25T06:19:13.437Z,62.63
2017-09-25T06:19:53.897Z,62.57
2017-09-25T06:20:34.360Z,62.63
2017-09-25T06:21:14.812Z,62.86
2017-09-25T06:21:55.267Z,62.86
2017-09-25T06:22:35.714Z,62.76
2017-09-25T06:23:16.162Z,62.95
2017-09-25T06:23:56.601Z,62.66
2017-09-25T06:24:37.060Z,62.57
2017-09-25T06:25:17.511Z,62.47
2017-09-25T06:25:57.962Z,62.37
2017-09-25T06:26:38.423Z,62.66
2017-09-25T06:27:18.878Z,62.57
2017-09-25T06:27:59.327Z,62.57
2017-09-25T06:28:39.786Z,62.57
2017-09-25T06:29:20.238Z,62.37
2017-09-25T06:30:00.695Z,62.28
2017-09-25T06:30:41.137Z,62.18
2017-09-25T06:31:21.592Z,62.28
2017-09-25T06:32:02.044Z,62.28
2017-09-25T06:32:42.494Z,62.66
2017-09-25T06:33:22.954Z,62.47
2017-09-25T06:34:03.388Z,62.47
2017-09-25T06:34:43.843Z,62.18
2017-09-25T06:35:24.303Z,62.08
2017-09-25T06:36:04.760Z,62.18
2017-09-25T06:36:45.211Z,61.7
2017-09-25T06:37:25.660Z,61.99
2017-09-25T06:38:06.112Z,61.99
2017-09-25T06:38:46.563Z,62.18
2017-09-25T06:39:27.030Z,61.89
2017-09-25T06:40:07.479Z,61.8
2017-09-25T06:40:47.928Z,62.18
2017-09-25T06:41:28.390Z,62.18
2017-09-25T06:42:08.836Z,61.99
2017-09-25T06:42:49.288Z,62.18
2017-09-25T06:43:29.768Z,62.18
2017-09-25T06:44:10.227Z,62.18
2017-09-25T06:44:50.684Z,62.47
2017-09-25T06:45:31.137Z,62.08
2017-09-25T06:46:11.597Z,62.08
2017-09-25T06:46:52.049Z,62.21
2017-09-25T06:47:32.510Z,62.21
2017-09-25T06:48:12.974Z,61.73
2017-09-25T06:48:53.431Z,61.83
2017-09-25T06:49:33.884Z,61.73
2017-09-25T06:50:14.338Z,61.6
2017-09-25T06:50:54.794Z,61.7
2017-09-25T06:51:35.251Z,61.25
2017-09-25T06:52:15.702Z,61.34
2017-09-25T06:52:56.175Z,61.15
2017-09-25T06:53:36.626Z,61.54
2017-09-25T06:54:17.081Z,61.34
2017-09-25T06:54:57.537Z,61.63
2017-09-25T06:55:37.997Z,61.44
2017-09-25T06:56:18.438Z,61.73
2017-09-25T06:56:58.940Z,61.44
2017-09-25T06:57:39.403Z,61.44
2017-09-25T06:58:19.859Z,61.44
2017-09-25T06:59:00.319Z,61.25
2017-09-25T06:59:40.762Z,61.25
2017-09-25T07:00:21.216Z,61.25
2017-09-25T07:01:01.679Z,61.44
2017-09-25T07:01:42.132Z,61.44
2017-09-25T07:02:22.586Z,61.25
2017-09-25T07:03:03.041Z,61.44
2017-09-25T07:03:43.492Z,61.25
2017-09-25T07:04:23.950Z,61.44
2017-09-25T07:05:04.401Z,61.44
2017-09-25T07:05:44.851Z,61.54
2017-09-25T07:06:25.330Z,61.63
2017-09-25T07:07:05.745Z,61.54
2017-09-25T07:07:46.192Z,61.44
2017-09-25T07:08:26.646Z,61.44
2017-09-25T07:09:07.103Z,61.44
2017-09-25T07:09:47.550Z,61.54
2017-09-25T07:10:28.002Z,61.15
2017-09-25T07:11:08.473Z,61.05
2017-09-25T07:11:49.005Z,61.15
2017-09-25T07:12:29.937Z,61.25
2017-09-25T07:13:10.380Z,60.76
2017-09-25T07:13:50.834Z,60.86
2017-09-25T07:14:31.363Z,60.99
2017-09-25T07:15:11.818Z,61.05
2017-09-25T07:15:52.287Z,61.05
2017-09-25T07:16:33.660Z,60.76
2017-09-25T07:17:14.116Z,60.96
2017-09-25T07:17:54.567Z,60.89
2017-09-25T07:18:35.030Z,60.5
2017-09-25T07:19:15.485Z,60.69
2017-09-25T07:19:55.933Z,60.79
2017-09-25T07:20:36.409Z,60.5
2017-09-25T07:21:16.842Z,60.6
2017-09-25T07:21:57.300Z,60.5
2017-09-25T07:22:37.753Z,60.31
2017-09-25T07:23:18.210Z,60.02
2017-09-25T07:23:58.658Z,60.11
2017-09-25T07:24:39.117Z,60.11
2017-09-25T07:25:19.564Z,60.21
2017-09-25T07:26:00.024Z,59.92
2017-09-25T07:26:40.470Z,59.83
2017-09-25T07:27:20.924Z,59.83
2017-09-25T07:28:01.375Z,60.41
2017-09-25T07:28:41.830Z,59.86
2017-09-25T07:29:22.283Z,60.05
2017-09-25T07:30:02.737Z,59.56
2017-09-25T07:30:43.186Z,59.86
2017-09-25T07:31:23.654Z,59.76
2017-09-25T07:32:04.100Z,60.05
2017-09-25T07:32:45.176Z,59.95
2017-09-25T07:33:25.643Z,60.14
2017-09-25T07:34:06.095Z,59.56
2017-09-25T07:34:46.555Z,59.59
2017-09-25T07:35:26.999Z,59.66
2017-09-25T07:36:07.756Z,59.76
2017-09-25T07:36:48.212Z,59.79
2017-09-25T07:37:28.660Z,59.47
2017-09-25T07:38:09.142Z,59.4
2017-09-25T07:38:49.564Z,59.38
2017-09-25T07:39:30.008Z,59.5
2017-09-25T07:40:10.465Z,59.31
2017-09-25T07:40:50.924Z,59.11
2017-09-25T07:41:31.352Z,59.21
2017-09-25T07:42:11.795Z,59.21
2017-09-25T07:42:52.245Z,59.21
2017-09-25T07:43:32.700Z,59.21
2017-09-25T07:44:14.128Z,59.21
2017-09-25T07:44:54.610Z,59.01
2017-09-25T07:45:35.093Z,58.63
2017-09-25T07:46:15.537Z,58.63
2017-09-25T07:46:55.992Z,58.53
2017-09-25T07:47:36.623Z,58.63
2017-09-25T07:48:17.073Z,58.53
2017-09-25T07:48:57.512Z,58.53
2017-09-25T07:49:37.965Z,58.53
2017-09-25T07:50:18.409Z,58.63
2017-09-25T07:50:59.006Z,58.72
2017-09-25T07:51:39.439Z,58.82
2017-09-25T07:52:20.043Z,58.56
2017-09-25T07:53:00.372Z,58.27
2017-09-25T07:53:40.828Z,58.37
2017-09-25T07:55:53.650Z,58.47
2017-09-25T07:56:34.104Z,57.79
2017-09-25T07:57:14.586Z,57.98
2017-09-25T07:57:55.023Z,58.07
2017-09-25T07:58:35.485Z,58.07
2017-09-25T07:59:15.934Z,58.07
2017-09-25T07:59:56.389Z,57.88
2017-09-25T08:00:36.845Z,57.98
2017-09-25T08:01:17.303Z,58.07
2017-09-25T08:01:57.757Z,57.79
2017-09-25T08:02:38.241Z,58.07
2017-09-25T08:03:18.666Z,58.07
2017-09-25T08:03:59.123Z,58.07
2017-09-25T08:04:39.577Z,57.98
2017-09-25T08:05:20.032Z,57.98
2017-09-25T08:06:00.486Z,58.07
2017-09-25T08:06:40.939Z,58.07
2017-09-25T08:07:21.388Z,57.71
2017-09-25T08:08:01.843Z,57.71
2017-09-25T08:08:42.296Z,57.69
2017-09-25T08:09:22.735Z,57.62
2017-09-25T08:10:03.187Z,57.5
2017-09-25T08:10:43.642Z,57.71
2017-09-25T08:11:24.095Z,57.53
2017-09-25T08:12:04.551Z,57.62
2017-09-25T08:12:45.051Z,57.81
2017-09-25T08:13:25.504Z,57.62
2017-09-25T08:14:05.958Z,57.23
2017-09-25T08:14:46.648Z,56.85
2017-09-25T08:15:27.102Z,57.23
2017-09-25T08:16:07.562Z,57.23
2017-09-25T08:16:48.023Z,57.33
2017-09-25T08:17:28.513Z,57.33
2017-09-25T08:18:08.970Z,56.85
2017-09-25T08:18:49.424Z,57.04
2017-09-25T08:19:29.876Z,57.14
2017-09-25T08:20:10.323Z,57.04
2017-09-25T08:20:50.814Z,57.04
2017-09-25T08:21:31.274Z,57.33
2017-09-25T08:22:11.732Z,57.36
2017-09-25T08:22:52.187Z,56.85
2017-09-25T08:23:32.637Z,56.56
2017-09-25T08:24:13.094Z,56.85
2017-09-25T08:24:53.541Z,56.56
2017-09-25T08:25:33.991Z,56.46
2017-09-25T08:26:14.441Z,56.39
2017-09-25T08:26:54.897Z,56.39
2017-09-25T08:27:35.354Z,56.39
2017-09-25T08:28:15.838Z,56.39
2017-09-25T08:28:56.256Z,56.2
2017-09-25T08:29:36.706Z,56.29
2017-09-25T08:30:17.158Z,56.49
2017-09-25T08:30:57.619Z,56.49
2017-09-25T08:31:38.081Z,56.49
2017-09-25T08:32:18.533Z,56.29
2017-09-25T08:32:58.995Z,56.2
2017-09-25T08:33:39.446Z,56.2
2017-09-25T08:34:19.897Z,56.29
2017-09-25T08:35:00.348Z,56
2017-09-25T08:35:40.802Z,55.9
2017-09-25T08:36:21.250Z,56.2
2017-09-25T08:37:01.741Z,55.93
2017-09-25T08:37:42.189Z,55.54
2017-09-25T08:38:22.641Z,55.71
2017-09-25T08:39:03.092Z,55.83
2017-09-25T08:39:43.537Z,55.62
2017-09-25T08:40:24.030Z,55.93
2017-09-25T08:42:11.560Z,55.52
2017-09-25T08:42:52.017Z,55.26
2017-09-25T08:43:32.474Z,55.83
2017-09-25T08:44:12.936Z,55.42
2017-09-25T08:44:53.375Z,55.64
2017-09-25T08:45:33.821Z,55.64
2017-09-25T08:46:14.277Z,55.54